Aviation Digital Data Service (ADDS)

Output produced by METARs form (1211 UTC 18 November 2017)
found at http://aviationweather.gov/adds/metars/
 
KCXO 181137Z 1812/1912 21012KT P6SM BKN015 OVC025 
     FM181600 24015KT P6SM BKN035 
     FM181900 30015G25KT P6SM BKN050 
     FM182200 35011G21KT P6SM FEW250 
     FM190700 36011KT P6SM SKC